Athens, Louisiana
Current Conditions -  °F | °C
As of 11:55 AM on Wednesday 28 Jan 2015 (Local Time) from KMNE Reporting Station
Clear Clear  
Wind Chill: 71°   Ceiling: Unl
Heat Index: 71°   Visibility: 10mi
Dew Point: 39°   Wind: 7mph
Humidity: 32%   Direction: 170°S
Pressure: 30.2"   Gusts: NA
Location:  32.65°N, 93.03°W
Report Text: KMNE 281755Z AUTO 17006KT 10SM CLR 21/04 A3020 RMK AO2 T02140041 10214 20095
Loading
Personal Weather Stations






























Interactive Weather Map New forecast layout! Learn more

10-Day Weather Forecast

Advertisements
Track Severe Weather on mobile